Terminal Aerodrome Forecast
Issued by NWS

Home | Current Version | Previous Version | Graphics & Text | Print | Product List | Glossary On
Versions: 1 2 3 4 5 6 7 8 9 10 11 12 13 14 15
000
FTUS43 KICT 270700 AAA
TAFRSL
TAF AMD
KRSL 270756Z 2708/2806 02013KT P6SM VCTS SCT030CB BKN080
      TEMPO 2708/2710 5SM -TSRA BR BKN030CB
     FM271500 03014G19KT P6SM BKN120
     FM280100 01010KT P6SM BKN120=

USA.gov is the U.S. government's official web portal to all federal, state and local government web resources and services.